sensor_id;sensor_type;location;lat;lon;timestamp;P1;durP1;ratioP1;P2;durP2;ratioP2
20480;SDS011;10399;50.754;3.366;2023-09-18T00:03:31;8.88;;;5.30;;
20480;SDS011;10399;50.754;3.366;2023-09-18T00:05:58;9.20;;;5.10;;
20480;SDS011;10399;50.754;3.366;2023-09-18T00:08:25;6.70;;;4.93;;
20480;SDS011;10399;50.754;3.366;2023-09-18T00:10:53;6.30;;;4.65;;
20480;SDS011;10399;50.754;3.366;2023-09-18T00:13:21;8.00;;;4.38;;
20480;SDS011;10399;50.754;3.366;2023-09-18T00:15:49;7.10;;;4.20;;
20480;SDS011;10399;50.754;3.366;2023-09-18T00:18:20;7.53;;;4.32;;
20480;SDS011;10399;50.754;3.366;2023-09-18T00:20:48;8.13;;;3.80;;
20480;SDS011;10399;50.754;3.366;2023-09-18T00:23:15;5.38;;;3.70;;
20480;SDS011;10399;50.754;3.366;2023-09-18T00:25:42;5.28;;;3.28;;
20480;SDS011;10399;50.754;3.366;2023-09-18T00:28:10;4.68;;;3.60;;
20480;SDS011;10399;50.754;3.366;2023-09-18T00:30:38;5.25;;;3.47;;
20480;SDS011;10399;50.754;3.366;2023-09-18T00:33:09;6.75;;;3.35;;
20480;SDS011;10399;50.754;3.366;2023-09-18T00:35:36;6.30;;;3.15;;
20480;SDS011;10399;50.754;3.366;2023-09-18T00:38:03;7.25;;;3.40;;
20480;SDS011;10399;50.754;3.366;2023-09-18T00:40:34;7.65;;;2.90;;
20480;SDS011;10399;50.754;3.366;2023-09-18T00:43:01;5.82;;;3.20;;
20480;SDS011;10399;50.754;3.366;2023-09-18T00:45:29;6.15;;;3.60;;
20480;SDS011;10399;50.754;3.366;2023-09-18T00:47:56;7.75;;;3.10;;
20480;SDS011;10399;50.754;3.366;2023-09-18T00:50:23;5.78;;;3.08;;
20480;SDS011;10399;50.754;3.366;2023-09-18T00:52:51;7.82;;;2.75;;
20480;SDS011;10399;50.754;3.366;2023-09-18T00:55:18;7.07;;;2.95;;
20480;SDS011;10399;50.754;3.366;2023-09-18T00:57:46;3.83;;;2.90;;
20480;SDS011;10399;50.754;3.366;2023-09-18T01:00:13;5.35;;;2.72;;
20480;SDS011;10399;50.754;3.366;2023-09-18T01:02:43;5.55;;;3.03;;
20480;SDS011;10399;50.754;3.366;2023-09-18T01:05:11;8.55;;;2.72;;
20480;SDS011;10399;50.754;3.366;2023-09-18T01:07:39;5.00;;;2.40;;
20480;SDS011;10399;50.754;3.366;2023-09-18T01:10:06;7.93;;;2.58;;
20480;SDS011;10399;50.754;3.366;2023-09-18T01:18:03;7.03;;;2.45;;
20480;SDS011;10399;50.754;3.366;2023-09-18T01:20:31;9.02;;;2.50;;
20480;SDS011;10399;50.754;3.366;2023-09-18T01:22:58;3.90;;;2.25;;
20480;SDS011;10399;50.754;3.366;2023-09-18T01:25:25;7.88;;;2.20;;
20480;SDS011;10399;50.754;3.366;2023-09-18T01:27:52;4.90;;;2.10;;
20480;SDS011;10399;50.754;3.366;2023-09-18T01:30:21;3.58;;;2.20;;
20480;SDS011;10399;50.754;3.366;2023-09-18T01:32:51;3.10;;;2.10;;
20480;SDS011;10399;50.754;3.366;2023-09-18T01:35:20;4.53;;;2.35;;
20480;SDS011;10399;50.754;3.366;2023-09-18T01:37:49;4.13;;;2.53;;
20480;SDS011;10399;50.754;3.366;2023-09-18T01:40:17;3.63;;;2.22;;
20480;SDS011;10399;50.754;3.366;2023-09-18T01:42:45;3.35;;;2.05;;
20480;SDS011;10399;50.754;3.366;2023-09-18T01:45:13;8.35;;;2.45;;
20480;SDS011;10399;50.754;3.366;2023-09-18T01:47:40;5.28;;;2.15;;
20480;SDS011;10399;50.754;3.366;2023-09-18T01:50:07;8.68;;;2.40;;
20480;SDS011;10399;50.754;3.366;2023-09-18T01:52:37;3.05;;;2.10;;
20480;SDS011;10399;50.754;3.366;2023-09-18T01:55:04;7.72;;;2.28;;
20480;SDS011;10399;50.754;3.366;2023-09-18T01:57:32;7.80;;;2.80;;
20480;SDS011;10399;50.754;3.366;2023-09-18T02:00:00;5.95;;;2.45;;
20480;SDS011;10399;50.754;3.366;2023-09-18T02:02:27;6.20;;;2.50;;
20480;SDS011;10399;50.754;3.366;2023-09-18T02:05:15;8.32;;;2.13;;
20480;SDS011;10399;50.754;3.366;2023-09-18T02:07:43;9.32;;;2.50;;
20480;SDS011;10399;50.754;3.366;2023-09-18T02:10:10;4.25;;;2.38;;
20480;SDS011;10399;50.754;3.366;2023-09-18T02:12:39;4.43;;;2.28;;
20480;SDS011;10399;50.754;3.366;2023-09-18T02:15:06;5.10;;;1.98;;
20480;SDS011;10399;50.754;3.366;2023-09-18T02:17:36;3.10;;;2.05;;
20480;SDS011;10399;50.754;3.366;2023-09-18T02:20:04;5.15;;;2.30;;
20480;SDS011;10399;50.754;3.366;2023-09-18T02:22:38;5.78;;;2.00;;
20480;SDS011;10399;50.754;3.366;2023-09-18T02:25:08;3.40;;;1.83;;
20480;SDS011;10399;50.754;3.366;2023-09-18T02:27:35;3.00;;;1.75;;
20480;SDS011;10399;50.754;3.366;2023-09-18T02:30:02;4.47;;;2.22;;
20480;SDS011;10399;50.754;3.366;2023-09-18T02:32:30;4.82;;;2.05;;
20480;SDS011;10399;50.754;3.366;2023-09-18T02:34:57;6.20;;;2.00;;
20480;SDS011;10399;50.754;3.366;2023-09-18T02:37:24;3.65;;;2.13;;
20480;SDS011;10399;50.754;3.366;2023-09-18T02:39:51;5.22;;;2.10;;
20480;SDS011;10399;50.754;3.366;2023-09-18T02:42:19;5.50;;;1.85;;
20480;SDS011;10399;50.754;3.366;2023-09-18T02:44:46;2.58;;;1.77;;
20480;SDS011;10399;50.754;3.366;2023-09-18T02:47:13;5.53;;;2.25;;
20480;SDS011;10399;50.754;3.366;2023-09-18T02:49:40;6.82;;;2.40;;
20480;SDS011;10399;50.754;3.366;2023-09-18T02:52:08;3.58;;;2.10;;
20480;SDS011;10399;50.754;3.366;2023-09-18T02:54:35;5.28;;;2.08;;
20480;SDS011;10399;50.754;3.366;2023-09-18T02:57:02;6.47;;;1.88;;
20480;SDS011;10399;50.754;3.366;2023-09-18T02:59:29;4.68;;;1.92;;
20480;SDS011;10399;50.754;3.366;2023-09-18T03:01:57;7.53;;;1.95;;
20480;SDS011;10399;50.754;3.366;2023-09-18T03:04:24;7.55;;;2.67;;
20480;SDS011;10399;50.754;3.366;2023-09-18T03:06:52;10.15;;;4.88;;
20480;SDS011;10399;50.754;3.366;2023-09-18T03:09:19;12.50;;;7.80;;
20480;SDS011;10399;50.754;3.366;2023-09-18T03:11:46;7.28;;;4.68;;
20480;SDS011;10399;50.754;3.366;2023-09-18T03:14:13;6.88;;;4.00;;
20480;SDS011;10399;50.754;3.366;2023-09-18T03:16:40;10.02;;;3.38;;
20480;SDS011;10399;50.754;3.366;2023-09-18T03:19:10;3.80;;;2.25;;
20480;SDS011;10399;50.754;3.366;2023-09-18T03:21:37;3.40;;;1.73;;
20480;SDS011;10399;50.754;3.366;2023-09-18T03:24:04;7.40;;;2.10;;
20480;SDS011;10399;50.754;3.366;2023-09-18T03:26:32;4.47;;;2.20;;
20480;SDS011;10399;50.754;3.366;2023-09-18T03:28:59;2.10;;;1.88;;
20480;SDS011;10399;50.754;3.366;2023-09-18T03:31:26;8.80;;;2.20;;
20480;SDS011;10399;50.754;3.366;2023-09-18T03:33:53;3.65;;;1.85;;
20480;SDS011;10399;50.754;3.366;2023-09-18T03:36:23;3.90;;;2.05;;
20480;SDS011;10399;50.754;3.366;2023-09-18T03:38:50;6.10;;;2.08;;
20480;SDS011;10399;50.754;3.366;2023-09-18T03:41:18;5.55;;;1.85;;
20480;SDS011;10399;50.754;3.366;2023-09-18T03:43:45;2.22;;;1.55;;
20480;SDS011;10399;50.754;3.366;2023-09-18T03:46:12;4.55;;;2.05;;
20480;SDS011;10399;50.754;3.366;2023-09-18T03:48:40;3.85;;;1.73;;
20480;SDS011;10399;50.754;3.366;2023-09-18T03:51:07;6.85;;;2.00;;
20480;SDS011;10399;50.754;3.366;2023-09-18T03:53:38;6.32;;;2.00;;
20480;SDS011;10399;50.754;3.366;2023-09-18T03:56:05;3.33;;;2.20;;
20480;SDS011;10399;50.754;3.366;2023-09-18T03:58:33;5.68;;;2.60;;
20480;SDS011;10399;50.754;3.366;2023-09-18T04:01:02;5.55;;;1.98;;
20480;SDS011;10399;50.754;3.366;2023-09-18T04:03:29;3.30;;;2.30;;
20480;SDS011;10399;50.754;3.366;2023-09-18T04:05:56;6.57;;;2.70;;
20480;SDS011;10399;50.754;3.366;2023-09-18T04:08:23;6.43;;;2.70;;
20480;SDS011;10399;50.754;3.366;2023-09-18T04:10:50;3.13;;;1.95;;
20480;SDS011;10399;50.754;3.366;2023-09-18T04:13:17;5.07;;;2.35;;
20480;SDS011;10399;50.754;3.366;2023-09-18T04:15:46;6.93;;;2.25;;
20480;SDS011;10399;50.754;3.366;2023-09-18T04:18:13;2.63;;;2.00;;
20480;SDS011;10399;50.754;3.366;2023-09-18T04:20:40;6.78;;;2.58;;
20480;SDS011;10399;50.754;3.366;2023-09-18T04:23:26;3.33;;;2.00;;
20480;SDS011;10399;50.754;3.366;2023-09-18T04:25:54;4.25;;;2.20;;
20480;SDS011;10399;50.754;3.366;2023-09-18T04:28:21;8.13;;;2.30;;
20480;SDS011;10399;50.754;3.366;2023-09-18T04:30:49;6.88;;;2.58;;
20480;SDS011;10399;50.754;3.366;2023-09-18T04:33:16;4.25;;;2.30;;
20480;SDS011;10399;50.754;3.366;2023-09-18T04:35:44;3.25;;;1.98;;
20480;SDS011;10399;50.754;3.366;2023-09-18T04:38:12;5.40;;;2.55;;
20480;SDS011;10399;50.754;3.366;2023-09-18T04:40:42;5.00;;;2.45;;
20480;SDS011;10399;50.754;3.366;2023-09-18T04:43:09;7.25;;;2.40;;
20480;SDS011;10399;50.754;3.366;2023-09-18T04:45:36;9.32;;;2.33;;
20480;SDS011;10399;50.754;3.366;2023-09-18T04:48:03;8.13;;;2.45;;
20480;SDS011;10399;50.754;3.366;2023-09-18T04:50:32;5.22;;;2.30;;
20480;SDS011;10399;50.754;3.366;2023-09-18T04:53:00;20.33;;;2.60;;
20480;SDS011;10399;50.754;3.366;2023-09-18T04:55:28;2.55;;;1.95;;
20480;SDS011;10399;50.754;3.366;2023-09-18T04:57:55;5.40;;;2.22;;
20480;SDS011;10399;50.754;3.366;2023-09-18T05:00:24;6.55;;;2.40;;
20480;SDS011;10399;50.754;3.366;2023-09-18T05:02:52;4.30;;;2.30;;
20480;SDS011;10399;50.754;3.366;2023-09-18T05:05:20;7.93;;;2.67;;
20480;SDS011;10399;50.754;3.366;2023-09-18T05:07:47;5.13;;;2.10;;
20480;SDS011;10399;50.754;3.366;2023-09-18T05:10:14;12.73;;;2.70;;
20480;SDS011;10399;50.754;3.366;2023-09-18T05:12:41;6.22;;;2.75;;
20480;SDS011;10399;50.754;3.366;2023-09-18T05:15:09;5.82;;;2.05;;
20480;SDS011;10399;50.754;3.366;2023-09-18T05:17:40;4.85;;;2.20;;
20480;SDS011;10399;50.754;3.366;2023-09-18T05:20:18;5.10;;;2.45;;
20480;SDS011;10399;50.754;3.366;2023-09-18T05:22:46;11.73;;;2.88;;
20480;SDS011;10399;50.754;3.366;2023-09-18T05:25:13;7.10;;;2.28;;
20480;SDS011;10399;50.754;3.366;2023-09-18T05:27:42;6.32;;;2.38;;
20480;SDS011;10399;50.754;3.366;2023-09-18T05:30:15;4.10;;;2.65;;
20480;SDS011;10399;50.754;3.366;2023-09-18T05:32:47;8.95;;;3.22;;
20480;SDS011;10399;50.754;3.366;2023-09-18T05:35:15;6.70;;;3.03;;
20480;SDS011;10399;50.754;3.366;2023-09-18T05:37:43;5.88;;;2.45;;
20480;SDS011;10399;50.754;3.366;2023-09-18T05:40:11;7.70;;;2.40;;
20480;SDS011;10399;50.754;3.366;2023-09-18T05:42:42;5.90;;;2.30;;
20480;SDS011;10399;50.754;3.366;2023-09-18T05:45:10;10.88;;;2.50;;
20480;SDS011;10399;50.754;3.366;2023-09-18T05:47:39;8.85;;;2.60;;
20480;SDS011;10399;50.754;3.366;2023-09-18T05:50:09;10.70;;;2.63;;
20480;SDS011;10399;50.754;3.366;2023-09-18T05:52:45;9.02;;;2.88;;
20480;SDS011;10399;50.754;3.366;2023-09-18T05:55:14;11.10;;;2.78;;
20480;SDS011;10399;50.754;3.366;2023-09-18T05:57:42;6.20;;;2.85;;
20480;SDS011;10399;50.754;3.366;2023-09-18T06:00:09;10.77;;;2.88;;
20480;SDS011;10399;50.754;3.366;2023-09-18T06:02:40;8.40;;;2.90;;
20480;SDS011;10399;50.754;3.366;2023-09-18T06:05:08;7.07;;;3.35;;
20480;SDS011;10399;50.754;3.366;2023-09-18T06:07:38;6.28;;;2.85;;
20480;SDS011;10399;50.754;3.366;2023-09-18T06:10:05;6.22;;;2.72;;
20480;SDS011;10399;50.754;3.366;2023-09-18T06:12:34;14.05;;;3.22;;
20480;SDS011;10399;50.754;3.366;2023-09-18T06:15:01;8.98;;;3.13;;
20480;SDS011;10399;50.754;3.366;2023-09-18T06:17:27;9.00;;;3.70;;
20480;SDS011;10399;50.754;3.366;2023-09-18T06:19:55;6.40;;;3.40;;
20480;SDS011;10399;50.754;3.366;2023-09-18T06:22:22;5.38;;;3.25;;
20480;SDS011;10399;50.754;3.366;2023-09-18T06:24:49;5.55;;;3.65;;
20480;SDS011;10399;50.754;3.366;2023-09-18T06:27:16;8.88;;;3.80;;
20480;SDS011;10399;50.754;3.366;2023-09-18T06:29:45;16.15;;;3.92;;
20480;SDS011;10399;50.754;3.366;2023-09-18T06:32:12;6.35;;;3.60;;
20480;SDS011;10399;50.754;3.366;2023-09-18T06:34:39;7.15;;;3.95;;
20480;SDS011;10399;50.754;3.366;2023-09-18T06:37:10;7.07;;;3.78;;
20480;SDS011;10399;50.754;3.366;2023-09-18T06:39:39;12.50;;;4.88;;
20480;SDS011;10399;50.754;3.366;2023-09-18T06:42:06;11.15;;;4.25;;
20480;SDS011;10399;50.754;3.366;2023-09-18T06:44:33;6.05;;;4.30;;
20480;SDS011;10399;50.754;3.366;2023-09-18T06:47:00;8.23;;;3.80;;
20480;SDS011;10399;50.754;3.366;2023-09-18T06:49:28;7.57;;;4.50;;
20480;SDS011;10399;50.754;3.366;2023-09-18T06:51:55;11.45;;;4.03;;
20480;SDS011;10399;50.754;3.366;2023-09-18T06:54:22;8.05;;;4.40;;
20480;SDS011;10399;50.754;3.366;2023-09-18T06:56:49;12.27;;;5.55;;
20480;SDS011;10399;50.754;3.366;2023-09-18T06:59:16;8.40;;;4.75;;
20480;SDS011;10399;50.754;3.366;2023-09-18T07:01:44;8.00;;;4.15;;
20480;SDS011;10399;50.754;3.366;2023-09-18T07:04:11;8.70;;;4.25;;
20480;SDS011;10399;50.754;3.366;2023-09-18T07:06:38;9.45;;;4.72;;
20480;SDS011;10399;50.754;3.366;2023-09-18T07:09:05;5.82;;;4.20;;
20480;SDS011;10399;50.754;3.366;2023-09-18T07:11:33;6.70;;;4.50;;
20480;SDS011;10399;50.754;3.366;2023-09-18T07:14:01;10.90;;;4.40;;
20480;SDS011;10399;50.754;3.366;2023-09-18T07:16:32;6.72;;;4.63;;
20480;SDS011;10399;50.754;3.366;2023-09-18T07:19:00;10.32;;;5.10;;
20480;SDS011;10399;50.754;3.366;2023-09-18T07:21:31;15.93;;;4.68;;
20480;SDS011;10399;50.754;3.366;2023-09-18T07:23:58;4.70;;;4.20;;
20480;SDS011;10399;50.754;3.366;2023-09-18T07:26:25;5.68;;;4.57;;
20480;SDS011;10399;50.754;3.366;2023-09-18T07:28:52;5.88;;;4.45;;
20480;SDS011;10399;50.754;3.366;2023-09-18T07:31:20;9.32;;;4.97;;
20480;SDS011;10399;50.754;3.366;2023-09-18T07:33:47;10.43;;;5.32;;
20480;SDS011;10399;50.754;3.366;2023-09-18T07:36:14;9.32;;;5.32;;
20480;SDS011;10399;50.754;3.366;2023-09-18T07:38:42;9.80;;;5.85;;
20480;SDS011;10399;50.754;3.366;2023-09-18T07:41:12;12.98;;;6.00;;
20480;SDS011;10399;50.754;3.366;2023-09-18T07:43:42;19.45;;;7.07;;
20480;SDS011;10399;50.754;3.366;2023-09-18T07:46:09;7.70;;;5.90;;
20480;SDS011;10399;50.754;3.366;2023-09-18T07:48:36;10.70;;;5.70;;
20480;SDS011;10399;50.754;3.366;2023-09-18T07:51:04;9.30;;;5.32;;
20480;SDS011;10399;50.754;3.366;2023-09-18T07:53:31;7.22;;;4.95;;
20480;SDS011;10399;50.754;3.366;2023-09-18T07:55:58;9.60;;;4.65;;
20480;SDS011;10399;50.754;3.366;2023-09-18T07:58:26;9.68;;;5.35;;
20480;SDS011;10399;50.754;3.366;2023-09-18T08:00:57;10.77;;;4.47;;
20480;SDS011;10399;50.754;3.366;2023-09-18T08:03:25;9.98;;;4.63;;
20480;SDS011;10399;50.754;3.366;2023-09-18T08:05:53;10.85;;;4.72;;
20480;SDS011;10399;50.754;3.366;2023-09-18T08:08:20;10.23;;;4.45;;
20480;SDS011;10399;50.754;3.366;2023-09-18T08:10:49;5.43;;;4.05;;
20480;SDS011;10399;50.754;3.366;2023-09-18T08:13:21;12.13;;;5.03;;
20480;SDS011;10399;50.754;3.366;2023-09-18T08:15:49;13.05;;;4.85;;
20480;SDS011;10399;50.754;3.366;2023-09-18T08:18:17;12.32;;;5.55;;
20480;SDS011;10399;50.754;3.366;2023-09-18T08:20:44;11.75;;;5.07;;
20480;SDS011;10399;50.754;3.366;2023-09-18T08:23:12;8.57;;;4.55;;
20480;SDS011;10399;50.754;3.366;2023-09-18T08:25:39;8.55;;;4.82;;
20480;SDS011;10399;50.754;3.366;2023-09-18T08:28:09;11.30;;;4.50;;
20480;SDS011;10399;50.754;3.366;2023-09-18T08:30:36;9.57;;;4.28;;
20480;SDS011;10399;50.754;3.366;2023-09-18T08:33:06;6.20;;;4.18;;
20480;SDS011;10399;50.754;3.366;2023-09-18T08:35:34;6.75;;;4.32;;
20480;SDS011;10399;50.754;3.366;2023-09-18T08:38:01;8.15;;;4.05;;
20480;SDS011;10399;50.754;3.366;2023-09-18T08:40:29;11.25;;;4.40;;
20480;SDS011;10399;50.754;3.366;2023-09-18T08:42:56;11.00;;;4.82;;
20480;SDS011;10399;50.754;3.366;2023-09-18T08:45:38;13.57;;;5.25;;
20480;SDS011;10399;50.754;3.366;2023-09-18T08:48:11;7.47;;;4.38;;
20480;SDS011;10399;50.754;3.366;2023-09-18T08:50:38;9.23;;;3.90;;
20480;SDS011;10399;50.754;3.366;2023-09-18T08:53:06;8.10;;;4.07;;
20480;SDS011;10399;50.754;3.366;2023-09-18T08:55:34;10.30;;;5.00;;
20480;SDS011;10399;50.754;3.366;2023-09-18T08:58:02;12.82;;;4.10;;
20480;SDS011;10399;50.754;3.366;2023-09-18T09:00:29;8.25;;;3.85;;
20480;SDS011;10399;50.754;3.366;2023-09-18T09:02:56;4.82;;;3.17;;
20480;SDS011;10399;50.754;3.366;2023-09-18T09:05:23;6.72;;;4.22;;
20480;SDS011;10399;50.754;3.366;2023-09-18T09:07:51;9.55;;;3.88;;
20480;SDS011;10399;50.754;3.366;2023-09-18T09:10:18;7.38;;;3.72;;
20480;SDS011;10399;50.754;3.366;2023-09-18T09:12:50;10.00;;;3.42;;
20480;SDS011;10399;50.754;3.366;2023-09-18T09:15:20;6.25;;;3.47;;
20480;SDS011;10399;50.754;3.366;2023-09-18T09:17:51;9.95;;;4.10;;
20480;SDS011;10399;50.754;3.366;2023-09-18T09:20:27;6.65;;;3.80;;
20480;SDS011;10399;50.754;3.366;2023-09-18T09:22:59;9.63;;;3.97;;
20480;SDS011;10399;50.754;3.366;2023-09-18T09:25:31;10.00;;;3.83;;
20480;SDS011;10399;50.754;3.366;2023-09-18T09:28:06;8.20;;;3.42;;
20480;SDS011;10399;50.754;3.366;2023-09-18T09:30:34;9.27;;;3.78;;
20480;SDS011;10399;50.754;3.366;2023-09-18T09:33:03;6.80;;;4.00;;
20480;SDS011;10399;50.754;3.366;2023-09-18T09:35:32;7.55;;;3.42;;
20480;SDS011;10399;50.754;3.366;2023-09-18T09:38:10;6.45;;;3.75;;
20480;SDS011;10399;50.754;3.366;2023-09-18T09:40:41;9.73;;;3.45;;
20480;SDS011;10399;50.754;3.366;2023-09-18T09:43:10;4.28;;;2.85;;
20480;SDS011;10399;50.754;3.366;2023-09-18T09:45:41;5.72;;;3.25;;
20480;SDS011;10399;50.754;3.366;2023-09-18T09:48:09;10.10;;;2.60;;
20480;SDS011;10399;50.754;3.366;2023-09-18T09:50:46;10.68;;;2.50;;
20480;SDS011;10399;50.754;3.366;2023-09-18T09:53:15;6.85;;;2.90;;
20480;SDS011;10399;50.754;3.366;2023-09-18T09:55:43;8.02;;;3.20;;
20480;SDS011;10399;50.754;3.366;2023-09-18T09:58:11;5.18;;;2.50;;
20480;SDS011;10399;50.754;3.366;2023-09-18T10:00:48;7.38;;;2.90;;
20480;SDS011;10399;50.754;3.366;2023-09-18T10:03:19;8.57;;;2.95;;
20480;SDS011;10399;50.754;3.366;2023-09-18T10:05:49;6.07;;;2.85;;
20480;SDS011;10399;50.754;3.366;2023-09-18T10:08:24;8.45;;;2.58;;
20480;SDS011;10399;50.754;3.366;2023-09-18T10:10:54;5.93;;;2.25;;
20480;SDS011;10399;50.754;3.366;2023-09-18T10:13:41;7.05;;;2.75;;
20480;SDS011;10399;50.754;3.366;2023-09-18T10:16:13;6.30;;;2.85;;
20480;SDS011;10399;50.754;3.366;2023-09-18T10:29:25;7.65;;;2.38;;
20480;SDS011;10399;50.754;3.366;2023-09-18T10:31:54;3.38;;;2.17;;
20480;SDS011;10399;50.754;3.366;2023-09-18T10:34:22;7.63;;;2.63;;
20480;SDS011;10399;50.754;3.366;2023-09-18T10:36:52;7.47;;;2.55;;
20480;SDS011;10399;50.754;3.366;2023-09-18T10:39:20;5.32;;;2.33;;
20480;SDS011;10399;50.754;3.366;2023-09-18T10:41:51;4.80;;;2.65;;
20480;SDS011;10399;50.754;3.366;2023-09-18T10:44:20;6.85;;;2.28;;
20480;SDS011;10399;50.754;3.366;2023-09-18T10:46:48;3.88;;;2.05;;
20480;SDS011;10399;50.754;3.366;2023-09-18T10:49:16;4.93;;;2.53;;
20480;SDS011;10399;50.754;3.366;2023-09-18T10:51:43;7.45;;;2.30;;
20480;SDS011;10399;50.754;3.366;2023-09-18T10:54:16;7.65;;;2.83;;
20480;SDS011;10399;50.754;3.366;2023-09-18T10:56:47;4.18;;;2.53;;
20480;SDS011;10399;50.754;3.366;2023-09-18T10:59:14;4.40;;;2.25;;
20480;SDS011;10399;50.754;3.366;2023-09-18T11:01:42;3.42;;;2.15;;
20480;SDS011;10399;50.754;3.366;2023-09-18T11:04:10;8.15;;;2.20;;
20480;SDS011;10399;50.754;3.366;2023-09-18T11:09:27;5.78;;;2.10;;
20480;SDS011;10399;50.754;3.366;2023-09-18T11:17:32;4.85;;;2.58;;
20480;SDS011;10399;50.754;3.366;2023-09-18T11:22:36;4.40;;;2.30;;
20480;SDS011;10399;50.754;3.366;2023-09-18T11:28:15;10.60;;;2.30;;
20480;SDS011;10399;50.754;3.366;2023-09-18T11:30:56;4.20;;;2.05;;
20480;SDS011;10399;50.754;3.366;2023-09-18T11:36:05;3.40;;;1.80;;
20480;SDS011;10399;50.754;3.366;2023-09-18T11:38:54;5.43;;;2.10;;
20480;SDS011;10399;50.754;3.366;2023-09-18T11:41:25;4.53;;;2.40;;
20480;SDS011;10399;50.754;3.366;2023-09-18T11:46:40;6.97;;;2.25;;
20480;SDS011;10399;50.754;3.366;2023-09-18T11:49:11;7.40;;;1.95;;
20480;SDS011;10399;50.754;3.366;2023-09-18T11:51:38;5.85;;;1.85;;
20480;SDS011;10399;50.754;3.366;2023-09-18T11:54:07;6.10;;;2.40;;
20480;SDS011;10399;50.754;3.366;2023-09-18T11:56:34;4.13;;;2.00;;
20480;SDS011;10399;50.754;3.366;2023-09-18T11:59:04;8.38;;;2.30;;
20480;SDS011;10399;50.754;3.366;2023-09-18T12:01:33;3.92;;;1.80;;
20480;SDS011;10399;50.754;3.366;2023-09-18T12:04:03;3.80;;;1.83;;
20480;SDS011;10399;50.754;3.366;2023-09-18T12:06:35;8.50;;;1.85;;
20480;SDS011;10399;50.754;3.366;2023-09-18T12:09:05;4.47;;;2.15;;
20480;SDS011;10399;50.754;3.366;2023-09-18T12:11:33;5.18;;;1.90;;
20480;SDS011;10399;50.754;3.366;2023-09-18T12:14:05;15.60;;;2.25;;
20480;SDS011;10399;50.754;3.366;2023-09-18T12:16:39;4.18;;;1.83;;
20480;SDS011;10399;50.754;3.366;2023-09-18T12:19:07;7.10;;;2.28;;
20480;SDS011;10399;50.754;3.366;2023-09-18T12:21:40;4.50;;;2.22;;
20480;SDS011;10399;50.754;3.366;2023-09-18T12:24:15;4.07;;;1.98;;
20480;SDS011;10399;50.754;3.366;2023-09-18T12:26:52;4.18;;;1.90;;
20480;SDS011;10399;50.754;3.366;2023-09-18T12:29:20;5.00;;;1.80;;
20480;SDS011;10399;50.754;3.366;2023-09-18T12:31:48;6.28;;;2.30;;
20480;SDS011;10399;50.754;3.366;2023-09-18T12:34:21;7.65;;;1.70;;
20480;SDS011;10399;50.754;3.366;2023-09-18T12:36:49;2.25;;;1.50;;
20480;SDS011;10399;50.754;3.366;2023-09-18T12:39:17;6.90;;;2.28;;
20480;SDS011;10399;50.754;3.366;2023-09-18T12:41:46;2.45;;;1.60;;
20480;SDS011;10399;50.754;3.366;2023-09-18T12:44:14;4.15;;;1.80;;
20480;SDS011;10399;50.754;3.366;2023-09-18T12:46:43;2.17;;;1.33;;
20480;SDS011;10399;50.754;3.366;2023-09-18T12:49:15;9.77;;;1.73;;
20480;SDS011;10399;50.754;3.366;2023-09-18T12:51:42;3.63;;;1.70;;
20480;SDS011;10399;50.754;3.366;2023-09-18T12:54:10;3.75;;;1.58;;
20480;SDS011;10399;50.754;3.366;2023-09-18T12:56:40;12.52;;;1.73;;
20480;SDS011;10399;50.754;3.366;2023-09-18T12:59:08;9.18;;;2.42;;
20480;SDS011;10399;50.754;3.366;2023-09-18T13:01:45;3.17;;;1.73;;
20480;SDS011;10399;50.754;3.366;2023-09-18T13:04:14;4.18;;;1.55;;
20480;SDS011;10399;50.754;3.366;2023-09-18T13:06:42;5.68;;;1.63;;
20480;SDS011;10399;50.754;3.366;2023-09-18T13:09:17;5.30;;;2.30;;
20480;SDS011;10399;50.754;3.366;2023-09-18T13:11:53;10.65;;;1.55;;
20480;SDS011;10399;50.754;3.366;2023-09-18T13:14:24;3.95;;;1.60;;
20480;SDS011;10399;50.754;3.366;2023-09-18T13:16:52;8.43;;;2.38;;
20480;SDS011;10399;50.754;3.366;2023-09-18T13:19:19;8.32;;;2.28;;
20480;SDS011;10399;50.754;3.366;2023-09-18T13:21:47;4.95;;;2.30;;
20480;SDS011;10399;50.754;3.366;2023-09-18T13:24:27;5.70;;;2.95;;
20480;SDS011;10399;50.754;3.366;2023-09-18T13:26:56;7.35;;;3.00;;
20480;SDS011;10399;50.754;3.366;2023-09-18T13:29:25;7.60;;;2.90;;
20480;SDS011;10399;50.754;3.366;2023-09-18T13:31:53;5.68;;;2.45;;
20480;SDS011;10399;50.754;3.366;2023-09-18T13:34:20;7.88;;;2.25;;
20480;SDS011;10399;50.754;3.366;2023-09-18T13:36:48;3.45;;;2.08;;
20480;SDS011;10399;50.754;3.366;2023-09-18T13:39:15;2.53;;;1.80;;
20480;SDS011;10399;50.754;3.366;2023-09-18T13:41:45;7.72;;;2.20;;
20480;SDS011;10399;50.754;3.366;2023-09-18T13:44:13;3.72;;;2.17;;
20480;SDS011;10399;50.754;3.366;2023-09-18T13:46:40;6.65;;;2.05;;
20480;SDS011;10399;50.754;3.366;2023-09-18T13:49:07;6.18;;;2.00;;
20480;SDS011;10399;50.754;3.366;2023-09-18T13:51:35;11.13;;;2.20;;
20480;SDS011;10399;50.754;3.366;2023-09-18T13:54:02;7.82;;;1.80;;
20480;SDS011;10399;50.754;3.366;2023-09-18T13:56:30;3.83;;;2.20;;
20480;SDS011;10399;50.754;3.366;2023-09-18T13:58:57;4.20;;;1.63;;
20480;SDS011;10399;50.754;3.366;2023-09-18T14:01:24;1.75;;;1.60;;
20480;SDS011;10399;50.754;3.366;2023-09-18T14:03:53;6.22;;;1.92;;
20480;SDS011;10399;50.754;3.366;2023-09-18T14:06:21;6.50;;;2.00;;
20480;SDS011;10399;50.754;3.366;2023-09-18T14:08:48;5.88;;;2.03;;
20480;SDS011;10399;50.754;3.366;2023-09-18T14:11:15;4.10;;;1.85;;
20480;SDS011;10399;50.754;3.366;2023-09-18T14:13:44;3.00;;;1.40;;
20480;SDS011;10399;50.754;3.366;2023-09-18T14:16:13;5.13;;;1.90;;
20480;SDS011;10399;50.754;3.366;2023-09-18T14:18:41;5.88;;;1.80;;
20480;SDS011;10399;50.754;3.366;2023-09-18T14:21:09;3.65;;;1.75;;
20480;SDS011;10399;50.754;3.366;2023-09-18T14:23:36;6.03;;;1.73;;
20480;SDS011;10399;50.754;3.366;2023-09-18T14:26:04;3.63;;;1.70;;
20480;SDS011;10399;50.754;3.366;2023-09-18T14:28:31;4.47;;;1.80;;
20480;SDS011;10399;50.754;3.366;2023-09-18T14:30:59;7.43;;;2.13;;
20480;SDS011;10399;50.754;3.366;2023-09-18T14:33:29;3.97;;;2.03;;
20480;SDS011;10399;50.754;3.366;2023-09-18T14:35:57;4.97;;;2.17;;
20480;SDS011;10399;50.754;3.366;2023-09-18T14:38:24;6.40;;;1.80;;
20480;SDS011;10399;50.754;3.366;2023-09-18T14:40:51;3.35;;;1.80;;
20480;SDS011;10399;50.754;3.366;2023-09-18T14:43:18;3.72;;;1.98;;
20480;SDS011;10399;50.754;3.366;2023-09-18T14:45:45;7.50;;;1.70;;
20480;SDS011;10399;50.754;3.366;2023-09-18T14:48:16;5.03;;;1.63;;
20480;SDS011;10399;50.754;3.366;2023-09-18T14:50:43;5.88;;;1.90;;
20480;SDS011;10399;50.754;3.366;2023-09-18T14:53:10;4.10;;;1.60;;
20480;SDS011;10399;50.754;3.366;2023-09-18T14:55:39;4.85;;;1.60;;
20480;SDS011;10399;50.754;3.366;2023-09-18T14:58:06;2.78;;;1.40;;
20480;SDS011;10399;50.754;3.366;2023-09-18T15:00:33;4.50;;;1.55;;
20480;SDS011;10399;50.754;3.366;2023-09-18T15:03:01;6.68;;;1.50;;
20480;SDS011;10399;50.754;3.366;2023-09-18T15:05:30;3.15;;;1.48;;
20480;SDS011;10399;50.754;3.366;2023-09-18T15:07:57;4.22;;;1.42;;
20480;SDS011;10399;50.754;3.366;2023-09-18T15:10:24;4.97;;;1.30;;
20480;SDS011;10399;50.754;3.366;2023-09-18T15:12:51;4.55;;;1.83;;
20480;SDS011;10399;50.754;3.366;2023-09-18T15:15:18;2.75;;;1.45;;
20480;SDS011;10399;50.754;3.366;2023-09-18T15:17:45;6.65;;;1.65;;
20480;SDS011;10399;50.754;3.366;2023-09-18T15:20:13;4.28;;;1.40;;
20480;SDS011;10399;50.754;3.366;2023-09-18T15:22:43;5.95;;;1.85;;
20480;SDS011;10399;50.754;3.366;2023-09-18T15:25:11;5.68;;;1.60;;
20480;SDS011;10399;50.754;3.366;2023-09-18T15:27:38;6.10;;;1.58;;
20480;SDS011;10399;50.754;3.366;2023-09-18T15:30:05;5.78;;;1.65;;
20480;SDS011;10399;50.754;3.366;2023-09-18T15:32:45;3.90;;;1.60;;